createdAt,value
2023-03-04T00:02:08.210Z,7.00
2023-03-04T00:04:35.011Z,6.98
2023-03-04T00:07:04.872Z,6.98
2023-03-04T00:09:31.677Z,6.97
2023-03-04T00:11:58.456Z,6.98
2023-03-04T00:14:25.284Z,6.98
2023-03-04T00:16:52.041Z,6.93
2023-03-04T00:19:18.756Z,6.90
2023-03-04T00:21:45.555Z,6.91
2023-03-04T00:24:12.288Z,6.91
2023-03-04T00:26:39.063Z,6.92
2023-03-04T00:29:06.425Z,6.94
2023-03-04T00:31:33.358Z,6.94
2023-03-04T00:34:00.141Z,6.98
2023-03-04T00:36:26.928Z,6.99
2023-03-04T00:38:53.650Z,6.98
2023-03-04T00:41:20.362Z,6.96
2023-03-04T00:43:47.351Z,6.95
2023-03-04T00:46:14.231Z,6.94
2023-03-04T00:48:41.020Z,6.93
2023-03-04T00:51:07.847Z,6.92
2023-03-04T00:53:34.613Z,6.90
2023-03-04T00:56:01.242Z,6.90
2023-03-04T00:58:28.283Z,6.89
2023-03-04T01:00:55.034Z,6.83
2023-03-04T01:03:21.683Z,6.83
2023-03-04T01:05:48.457Z,6.83
2023-03-04T01:08:15.164Z,6.81
2023-03-04T01:10:41.800Z,6.84
2023-03-04T01:13:08.789Z,6.83
2023-03-04T01:15:35.508Z,6.83
2023-03-04T01:18:02.316Z,6.86
2023-03-04T01:20:29.185Z,6.84
2023-03-04T01:22:55.944Z,6.86
2023-03-04T01:25:22.607Z,6.84
2023-03-04T01:27:49.547Z,6.81
2023-03-04T01:30:16.261Z,6.82
2023-03-04T01:32:42.954Z,6.83
2023-03-04T01:35:10.320Z,6.84
2023-03-04T01:37:37.081Z,6.83
2023-03-04T01:40:05.508Z,6.83
2023-03-04T01:42:35.678Z,6.83
2023-03-04T01:45:03.283Z,6.82
2023-03-04T01:47:32.177Z,6.84
2023-03-04T01:50:03.262Z,6.84
2023-03-04T01:52:29.987Z,6.86
2023-03-04T01:54:57.964Z,6.84
2023-03-04T01:57:26.884Z,6.87
2023-03-04T02:00:16.520Z,6.86
2023-03-04T02:02:43.509Z,6.83
2023-03-04T02:05:10.479Z,6.79
2023-03-04T02:07:37.617Z,6.77
2023-03-04T02:10:05.233Z,6.78
2023-03-04T02:12:31.964Z,6.77
2023-03-04T02:14:58.671Z,6.77
2023-03-04T02:17:26.855Z,6.77
2023-03-04T02:19:56.484Z,6.75
2023-03-04T02:22:23.276Z,6.75
2023-03-04T02:24:54.938Z,6.75
2023-03-04T02:27:22.236Z,6.73
2023-03-04T02:29:49.249Z,6.73
2023-03-04T02:32:17.027Z,6.75
2023-03-04T02:34:49.292Z,6.76
2023-03-04T02:37:17.472Z,6.74
2023-03-04T02:39:46.654Z,6.73
2023-03-04T02:42:13.955Z,6.73
2023-03-04T02:44:48.576Z,6.71
2023-03-04T02:47:20.425Z,6.70
2023-03-04T02:49:47.741Z,6.68
2023-03-04T02:52:19.680Z,6.67
2023-03-04T02:54:46.611Z,6.65
2023-03-04T02:57:14.948Z,6.64
2023-03-04T02:59:42.746Z,6.63
2023-03-04T03:02:09.638Z,6.60
2023-03-04T03:04:40.931Z,6.58
2023-03-04T03:07:08.426Z,6.54
2023-03-04T03:09:35.138Z,6.54
2023-03-04T03:12:01.833Z,6.55
2023-03-04T03:14:28.793Z,6.54
2023-03-04T03:16:55.451Z,6.51
2023-03-04T03:19:22.129Z,6.51
2023-03-04T03:21:50.209Z,6.53
2023-03-04T03:24:16.912Z,6.50
2023-03-04T03:26:43.589Z,6.50
2023-03-04T03:29:10.481Z,6.47
2023-03-04T03:31:37.131Z,6.46
2023-03-04T03:34:04.028Z,6.47
2023-03-04T03:36:30.904Z,6.46
2023-03-04T03:38:57.689Z,6.46
2023-03-04T03:41:24.314Z,6.45
2023-03-04T03:43:51.226Z,6.43
2023-03-04T03:46:17.871Z,6.44
2023-03-04T03:48:44.557Z,6.43
2023-03-04T03:51:11.454Z,6.39
2023-03-04T03:53:38.151Z,6.39
2023-03-04T03:56:05.247Z,6.38
2023-03-04T03:58:32.280Z,6.37
2023-03-04T04:00:58.989Z,6.37
2023-03-04T04:03:26.069Z,6.37
2023-03-04T04:05:53.044Z,6.36
2023-03-04T04:08:19.727Z,6.37
2023-03-04T04:10:46.448Z,6.39
2023-03-04T04:13:13.517Z,6.38
2023-03-04T04:15:40.200Z,6.36
2023-03-04T04:18:07.814Z,6.35
2023-03-04T04:20:35.761Z,6.34
2023-03-04T04:23:03.168Z,6.33
2023-03-04T04:25:30.040Z,6.28
2023-03-04T04:27:57.026Z,6.26
2023-03-04T04:30:25.506Z,6.27
2023-03-04T04:32:52.210Z,6.26
2023-03-04T04:35:19.268Z,6.26
2023-03-04T04:37:45.969Z,6.28
2023-03-04T04:40:13.376Z,6.27
2023-03-04T04:42:40.324Z,6.28
2023-03-04T04:45:07.867Z,6.24
2023-03-04T04:47:34.502Z,6.26
2023-03-04T04:50:03.543Z,6.27
2023-03-04T04:52:30.401Z,6.27
2023-03-04T04:54:57.193Z,6.26
2023-03-04T04:57:24.072Z,6.26
2023-03-04T04:59:50.783Z,6.25
2023-03-04T05:02:17.584Z,6.22
2023-03-04T05:04:44.437Z,6.22
2023-03-04T05:07:11.162Z,6.22
2023-03-04T05:09:37.842Z,6.22
2023-03-04T05:12:04.685Z,6.22
2023-03-04T05:14:31.460Z,6.21
2023-03-04T05:16:58.097Z,6.21
2023-03-04T05:19:25.027Z,6.21
2023-03-04T05:21:51.755Z,6.20
2023-03-04T05:24:18.793Z,6.19
2023-03-04T05:26:45.757Z,6.18
2023-03-04T05:29:12.425Z,6.16
2023-03-04T05:31:39.103Z,6.15
2023-03-04T05:34:06.280Z,6.16
2023-03-04T05:36:32.980Z,6.15
2023-03-04T05:38:59.651Z,6.14
2023-03-04T05:41:26.728Z,6.11
2023-03-04T05:43:53.460Z,6.10
2023-03-04T05:46:25.574Z,6.09
2023-03-04T05:48:54.073Z,6.10
2023-03-04T05:51:22.355Z,6.11
2023-03-04T05:53:49.900Z,6.11
2023-03-04T05:56:20.081Z,6.10
2023-03-04T05:58:49.818Z,6.11
2023-03-04T06:01:17.075Z,6.11
2023-03-04T06:03:44.151Z,6.09
2023-03-04T06:06:11.160Z,6.10
2023-03-04T06:08:37.850Z,6.09
2023-03-04T06:11:05.910Z,6.07
2023-03-04T06:13:33.124Z,6.07
2023-03-04T06:16:00.344Z,6.06
2023-03-04T06:18:28.965Z,6.07
2023-03-04T06:21:00.177Z,6.06
2023-03-04T06:23:29.331Z,6.05
2023-03-04T06:25:57.981Z,6.04
2023-03-04T06:28:25.307Z,6.03
2023-03-04T06:30:53.254Z,6.02
2023-03-04T06:33:20.226Z,6.01
2023-03-04T06:35:47.296Z,6.03
2023-03-04T06:38:15.080Z,6.02
2023-03-04T06:40:41.856Z,6.03
2023-03-04T06:43:08.542Z,6.02
2023-03-04T06:45:35.679Z,5.99
2023-03-04T06:48:02.522Z,6.01
2023-03-04T06:50:29.244Z,6.02
2023-03-04T06:52:57.689Z,6.03
2023-03-04T06:55:24.627Z,6.02
2023-03-04T06:57:51.763Z,6.02
2023-03-04T07:00:19.842Z,6.01
2023-03-04T07:02:46.616Z,6.01
2023-03-04T07:05:13.354Z,5.99
2023-03-04T07:07:40.234Z,5.97
2023-03-04T07:10:07.461Z,5.98
2023-03-04T07:12:34.185Z,5.97
2023-03-04T07:15:01.222Z,5.98
2023-03-04T07:17:28.142Z,5.97
2023-03-04T07:19:54.785Z,5.98
2023-03-04T07:22:21.545Z,5.94
2023-03-04T07:24:48.300Z,5.97
2023-03-04T07:27:14.989Z,5.97
2023-03-04T07:29:41.868Z,5.98
2023-03-04T07:32:09.870Z,5.97
2023-03-04T07:34:36.667Z,5.95
2023-03-04T07:37:03.982Z,5.94
2023-03-04T07:39:30.768Z,5.97
2023-03-04T07:41:57.555Z,5.98
2023-03-04T07:44:24.359Z,6.00
2023-03-04T07:46:51.138Z,6.01
2023-03-04T07:49:17.814Z,5.99
2023-03-04T07:51:44.757Z,5.98
2023-03-04T07:54:11.653Z,5.98
2023-03-04T07:56:38.438Z,6.01
2023-03-04T07:59:05.414Z,6.02
2023-03-04T08:01:37.643Z,6.02
2023-03-04T08:04:08.058Z,6.04
2023-03-04T08:06:35.594Z,6.04
2023-03-04T08:09:07.393Z,6.05
2023-03-04T08:11:36.753Z,6.04
2023-03-04T08:14:03.712Z,6.06
2023-03-04T08:16:30.907Z,6.06
2023-03-04T08:19:01.482Z,6.08
2023-03-04T08:21:28.475Z,6.09
2023-03-04T08:23:59.367Z,6.08
2023-03-04T08:26:34.119Z,6.06
2023-03-04T08:29:03.099Z,6.10
2023-03-04T08:31:30.873Z,6.11
2023-03-04T08:33:57.998Z,6.13
2023-03-04T08:36:24.765Z,6.14
2023-03-04T08:38:51.564Z,6.16
2023-03-04T08:41:18.317Z,6.15
2023-03-04T08:43:45.160Z,6.13
2023-03-04T08:46:12.196Z,6.11
2023-03-04T08:48:39.066Z,6.14
2023-03-04T08:51:11.273Z,6.15
2023-03-04T08:53:38.303Z,6.18
2023-03-04T08:56:06.272Z,6.19
2023-03-04T08:58:33.242Z,6.20
2023-03-04T09:01:01.310Z,6.23
2023-03-04T09:03:28.522Z,6.22
2023-03-04T09:05:55.734Z,6.25
2023-03-04T09:08:22.505Z,6.25
2023-03-04T09:10:53.103Z,6.27
2023-03-04T09:13:19.908Z,6.27
2023-03-04T09:15:51.995Z,6.27
2023-03-04T09:18:21.166Z,6.31
2023-03-04T09:20:47.995Z,6.30
2023-03-04T09:23:15.335Z,6.32
2023-03-04T09:25:42.796Z,6.33
2023-03-04T09:28:11.349Z,6.33
2023-03-04T09:30:38.670Z,6.37
2023-03-04T09:33:05.619Z,6.40
2023-03-04T09:35:32.627Z,6.43
2023-03-04T09:37:59.865Z,6.42
2023-03-04T09:40:48.580Z,6.43
2023-03-04T09:43:22.240Z,6.46
2023-03-04T09:45:53.771Z,6.52
2023-03-04T09:48:24.911Z,6.55
2023-03-04T09:51:14.226Z,6.58
2023-03-04T09:53:54.577Z,6.59
2023-03-04T09:56:22.408Z,6.63
2023-03-04T09:59:11.703Z,6.61
2023-03-04T10:01:55.292Z,6.61
2023-03-04T10:04:36.760Z,6.59
2023-03-04T10:07:06.175Z,6.60
2023-03-04T10:09:49.891Z,6.63
2023-03-04T10:12:21.935Z,6.63
2023-03-04T10:15:14.448Z,6.63
2023-03-04T10:17:45.861Z,6.69
2023-03-04T10:20:21.674Z,6.69
2023-03-04T10:22:53.482Z,6.67
2023-03-04T10:25:29.824Z,6.66
2023-03-04T10:28:11.365Z,6.67
2023-03-04T10:30:47.217Z,6.69
2023-03-04T10:33:16.059Z,6.73
2023-03-04T10:35:48.558Z,6.69
2023-03-04T10:38:15.806Z,6.71
2023-03-04T10:40:44.588Z,6.74
2023-03-04T10:43:20.837Z,6.80
2023-03-04T10:45:49.275Z,6.84
2023-03-04T10:48:28.785Z,6.89
2023-03-04T10:51:20.293Z,6.91
2023-03-04T10:53:50.488Z,6.96
2023-03-04T10:56:40.150Z,6.95
2023-03-04T10:59:41.121Z,6.99
2023-03-04T11:02:13.690Z,7.01
2023-03-04T11:04:40.645Z,7.02
2023-03-04T11:07:11.115Z,7.06
2023-03-04T11:09:40.405Z,7.10
2023-03-04T11:12:15.288Z,7.06
2023-03-04T11:14:49.348Z,7.10
2023-03-04T11:17:22.648Z,7.10
2023-03-04T11:20:02.977Z,7.09
2023-03-04T11:22:31.594Z,7.15
2023-03-04T11:25:24.291Z,7.16
2023-03-04T11:27:56.763Z,7.20
2023-03-04T11:30:35.331Z,7.22
2023-03-04T11:33:13.621Z,7.27
2023-03-04T11:35:59.686Z,7.25
2023-03-04T11:38:54.012Z,7.27
2023-03-04T11:41:36.445Z,7.26
2023-03-04T11:44:06.744Z,7.28
2023-03-04T11:46:51.835Z,7.29
2023-03-04T11:49:55.440Z,7.30
2023-03-04T11:52:41.127Z,7.29
2023-03-04T11:55:50.142Z,7.30
2023-03-04T11:58:42.688Z,7.29
2023-03-04T12:01:38.037Z,7.24
2023-03-04T12:04:22.830Z,7.21
2023-03-04T12:07:01.493Z,7.28
2023-03-04T12:10:16.182Z,7.34
2023-03-04T12:13:14.984Z,7.39
2023-03-04T12:15:58.852Z,7.45
2023-03-04T12:19:03.558Z,7.49
2023-03-04T12:21:37.638Z,7.49
2023-03-04T12:24:24.362Z,7.45
2023-03-04T12:26:55.340Z,7.45
2023-03-04T12:29:27.611Z,7.47
2023-03-04T12:32:06.487Z,7.48
2023-03-04T12:34:45.156Z,7.53
2023-03-04T12:37:36.361Z,7.53
2023-03-04T12:40:13.112Z,7.51
2023-03-04T12:43:02.911Z,7.55
2023-03-04T12:45:58.414Z,7.59
2023-03-04T12:48:36.186Z,7.62
2023-03-04T12:51:02.837Z,7.66
2023-03-04T12:54:03.321Z,7.68
2023-03-04T12:56:43.614Z,7.68
2023-03-04T12:59:22.673Z,7.68
2023-03-04T13:02:27.124Z,7.72
2023-03-04T13:05:18.687Z,7.70
2023-03-04T13:08:03.009Z,7.75
2023-03-04T13:10:31.758Z,7.79
2023-03-04T13:13:00.296Z,7.78
2023-03-04T13:15:36.123Z,7.75
2023-03-04T13:18:27.290Z,7.74
2023-03-04T13:21:12.113Z,7.75
2023-03-04T13:23:38.957Z,7.79
2023-03-04T13:26:31.893Z,7.81
2023-03-04T13:29:13.614Z,7.83
2023-03-04T13:32:04.197Z,7.82
2023-03-04T13:34:46.431Z,7.82
2023-03-04T13:37:36.014Z,7.77
2023-03-04T13:40:21.638Z,7.70
2023-03-04T13:42:48.617Z,7.71
2023-03-04T13:45:40.184Z,7.75
2023-03-04T13:48:25.545Z,7.83
2023-03-04T13:50:52.454Z,7.85
2023-03-04T13:53:42.477Z,7.84
2023-03-04T13:56:22.061Z,7.85
2023-03-04T13:59:03.228Z,7.87
2023-03-04T14:01:32.232Z,7.85
2023-03-04T14:04:01.265Z,7.84
2023-03-04T14:06:30.344Z,7.80
2023-03-04T14:08:58.078Z,7.78
2023-03-04T14:11:39.905Z,7.82
2023-03-04T14:14:10.545Z,7.84
2023-03-04T14:16:41.223Z,7.79
2023-03-04T14:19:21.870Z,7.75
2023-03-04T14:21:48.839Z,7.71
2023-03-04T14:24:18.769Z,7.72
2023-03-04T14:26:45.640Z,7.69
2023-03-04T14:29:27.300Z,7.63
2023-03-04T14:31:54.742Z,7.63
2023-03-04T14:34:28.947Z,7.67
2023-03-04T14:36:55.954Z,7.67
2023-03-04T14:39:25.749Z,7.68
2023-03-04T14:41:56.332Z,7.69
2023-03-04T14:44:35.865Z,7.69
2023-03-04T14:47:23.271Z,7.68
2023-03-04T14:49:50.660Z,7.67
2023-03-04T14:52:41.079Z,7.69
2023-03-04T14:55:17.188Z,7.69
2023-03-04T14:57:47.446Z,7.68
2023-03-04T15:00:33.549Z,7.65
2023-03-04T15:03:03.464Z,7.63
2023-03-04T15:05:33.269Z,7.60
2023-03-04T15:08:02.741Z,7.56
2023-03-04T15:10:39.298Z,7.53
2023-03-04T15:13:09.583Z,7.53
2023-03-04T15:15:42.996Z,7.51
2023-03-04T15:18:15.658Z,7.49
2023-03-04T15:20:42.494Z,7.43
2023-03-04T15:23:10.153Z,7.42
2023-03-04T15:25:36.941Z,7.38
2023-03-04T15:28:04.608Z,7.36
2023-03-04T15:30:33.379Z,7.36
2023-03-04T15:33:00.858Z,7.36
2023-03-04T15:35:30.750Z,7.34
2023-03-04T15:37:58.535Z,7.31
2023-03-04T15:40:27.538Z,7.30
2023-03-04T15:42:56.676Z,7.27
2023-03-04T15:45:44.324Z,7.22
2023-03-04T15:48:13.575Z,7.22
2023-03-04T15:50:43.837Z,7.16
2023-03-04T15:53:25.960Z,7.13
2023-03-04T15:55:53.104Z,7.12
2023-03-04T15:58:20.479Z,7.10
2023-03-04T16:00:47.263Z,7.09
2023-03-04T16:03:16.768Z,7.09
2023-03-04T16:05:45.436Z,7.08
2023-03-04T16:08:16.090Z,7.07
2023-03-04T16:10:46.683Z,7.07
2023-03-04T16:13:16.212Z,7.07
2023-03-04T16:15:43.855Z,7.03
2023-03-04T16:18:11.987Z,7.04
2023-03-04T16:20:40.476Z,7.02
2023-03-04T16:23:13.309Z,7.03
2023-03-04T16:25:42.621Z,6.99
2023-03-04T16:28:10.964Z,6.96
2023-03-04T16:30:37.782Z,6.94
2023-03-04T16:33:04.517Z,6.94
2023-03-04T16:35:32.052Z,6.94
2023-03-04T16:37:58.912Z,6.92
2023-03-04T16:40:29.138Z,6.89
2023-03-04T16:42:56.144Z,6.88
2023-03-04T16:45:25.640Z,6.86
2023-03-04T16:47:53.133Z,6.84
2023-03-04T16:50:27.382Z,6.83
2023-03-04T16:52:55.206Z,6.80
2023-03-04T16:55:24.947Z,6.78
2023-03-04T16:57:52.649Z,6.76
2023-03-04T17:00:21.203Z,6.73
2023-03-04T17:02:54.952Z,6.71
2023-03-04T17:05:22.882Z,6.67
2023-03-04T17:07:49.530Z,6.65
2023-03-04T17:10:16.938Z,6.63
2023-03-04T17:12:44.065Z,6.62
2023-03-04T17:15:13.632Z,6.60
2023-03-04T17:17:41.716Z,6.59
2023-03-04T17:20:10.162Z,6.55
2023-03-04T17:22:37.219Z,6.52
2023-03-04T17:25:04.860Z,6.52
2023-03-04T17:27:31.698Z,6.50
2023-03-04T17:29:58.517Z,6.49
2023-03-04T17:32:27.578Z,6.46
2023-03-04T17:34:57.129Z,6.44
2023-03-04T17:37:23.976Z,6.38
2023-03-04T17:39:50.953Z,6.36
2023-03-04T17:42:18.053Z,6.34
2023-03-04T17:44:45.690Z,6.33
2023-03-04T17:47:13.062Z,6.31
2023-03-04T17:49:39.936Z,6.26
2023-03-04T17:52:06.927Z,6.24
2023-03-04T17:54:34.863Z,6.24
2023-03-04T17:57:01.597Z,6.21
2023-03-04T17:59:28.405Z,6.21
2023-03-04T18:01:55.186Z,6.18
2023-03-04T18:04:22.532Z,6.16
2023-03-04T18:06:49.351Z,6.15
2023-03-04T18:09:16.155Z,6.16
2023-03-04T18:11:42.983Z,6.14
2023-03-04T18:14:12.958Z,6.11
2023-03-04T18:16:40.549Z,6.11
2023-03-04T18:19:09.430Z,6.10
2023-03-04T18:21:36.557Z,6.11
2023-03-04T18:24:03.789Z,6.10
2023-03-04T18:26:30.763Z,6.10
2023-03-04T18:28:57.740Z,6.11
2023-03-04T18:31:29.585Z,6.09
2023-03-04T18:33:58.662Z,6.10
2023-03-04T18:36:25.358Z,6.08
2023-03-04T18:38:52.169Z,6.07
2023-03-04T18:41:18.951Z,6.07
2023-03-04T18:43:45.682Z,6.09
2023-03-04T18:46:18.678Z,6.09
2023-03-04T18:48:46.786Z,6.07
2023-03-04T18:51:13.493Z,6.05
2023-03-04T18:53:40.434Z,6.06
2023-03-04T18:56:18.448Z,6.04
2023-03-04T18:58:47.893Z,6.03
2023-03-04T19:01:16.880Z,6.02
2023-03-04T19:03:45.129Z,6.01
2023-03-04T19:06:12.085Z,6.01
2023-03-04T19:08:38.912Z,5.99
2023-03-04T19:11:06.748Z,5.98
2023-03-04T19:13:34.088Z,6.01
2023-03-04T19:16:00.982Z,6.01
2023-03-04T19:18:28.993Z,6.01
2023-03-04T19:20:58.798Z,6.00
2023-03-04T19:23:25.578Z,6.00
2023-03-04T19:25:52.228Z,6.00
2023-03-04T19:28:19.231Z,5.99
2023-03-04T19:30:46.160Z,5.97
2023-03-04T19:33:12.997Z,5.97
2023-03-04T19:35:44.915Z,5.98
2023-03-04T19:38:12.068Z,5.97
2023-03-04T19:40:40.523Z,5.96
2023-03-04T19:43:08.074Z,5.96
2023-03-04T19:45:35.100Z,5.95
2023-03-04T19:48:03.204Z,5.94
2023-03-04T19:50:31.686Z,5.94
2023-03-04T19:52:58.645Z,5.95
2023-03-04T19:55:25.488Z,5.94
2023-03-04T19:57:52.440Z,5.94
2023-03-04T20:00:20.002Z,5.92
2023-03-04T20:02:49.138Z,5.93
2023-03-04T20:05:16.127Z,5.93
2023-03-04T20:07:43.977Z,5.92
2023-03-04T20:10:11.376Z,5.92
2023-03-04T20:12:38.339Z,5.90
2023-03-04T20:15:08.863Z,5.88
2023-03-04T20:17:35.894Z,5.86
2023-03-04T20:20:02.986Z,5.86
2023-03-04T20:22:30.448Z,5.84
2023-03-04T20:24:57.167Z,5.81
2023-03-04T20:27:23.982Z,5.80
2023-03-04T20:29:50.762Z,5.78
2023-03-04T20:32:17.487Z,5.75
2023-03-04T20:34:44.370Z,5.74
2023-03-04T20:37:11.168Z,5.71
2023-03-04T20:39:37.858Z,5.70
2023-03-04T20:42:06.973Z,5.69
2023-03-04T20:44:35.597Z,5.69
2023-03-04T20:47:03.250Z,5.69
2023-03-04T20:49:30.863Z,5.69
2023-03-04T20:52:03.368Z,5.70
2023-03-04T20:54:30.983Z,5.71
2023-03-04T20:56:57.758Z,5.68
2023-03-04T20:59:24.615Z,5.67
2023-03-04T21:01:52.280Z,5.64
2023-03-04T21:04:19.848Z,5.65
2023-03-04T21:06:47.617Z,5.63
2023-03-04T21:09:17.450Z,5.62
2023-03-04T21:11:45.219Z,5.61
2023-03-04T21:14:23.894Z,5.59
2023-03-04T21:16:54.612Z,5.60
2023-03-04T21:19:27.586Z,5.59
2023-03-04T21:21:55.065Z,5.53
2023-03-04T21:24:25.173Z,5.52
2023-03-04T21:26:52.118Z,5.49
2023-03-04T21:29:21.733Z,5.46
2023-03-04T21:32:23.379Z,5.44
2023-03-04T21:34:52.706Z,5.44
2023-03-04T21:37:20.845Z,5.43
2023-03-04T21:39:47.588Z,5.44
2023-03-04T21:42:14.376Z,5.44
2023-03-04T21:44:50.369Z,5.44
2023-03-04T21:47:18.751Z,5.45
2023-03-04T21:49:45.887Z,5.43
2023-03-04T21:52:13.276Z,5.43
2023-03-04T21:54:39.982Z,5.43
2023-03-04T21:57:06.870Z,5.44
2023-03-04T21:59:33.549Z,5.43
2023-03-04T22:02:00.314Z,5.42
2023-03-04T22:04:27.378Z,5.41
2023-03-04T22:06:54.090Z,5.39
2023-03-04T22:09:20.798Z,5.35
2023-03-04T22:11:47.626Z,5.34
2023-03-04T22:14:14.426Z,5.33
2023-03-04T22:16:56.923Z,5.34
2023-03-04T22:19:26.735Z,5.32
2023-03-04T22:21:54.028Z,5.31
2023-03-04T22:24:21.513Z,5.29
2023-03-04T22:26:48.907Z,5.28
2023-03-04T22:29:15.662Z,5.27
2023-03-04T22:31:42.375Z,5.26
2023-03-04T22:34:14.288Z,5.26
2023-03-04T22:36:43.508Z,5.24
2023-03-04T22:39:13.443Z,5.24
2023-03-04T22:41:40.800Z,5.24
2023-03-04T22:44:08.414Z,5.24
2023-03-04T22:46:38.408Z,5.24
2023-03-04T22:49:09.673Z,5.23
2023-03-04T22:51:37.300Z,5.19
2023-03-04T22:54:04.448Z,5.20
2023-03-04T22:56:31.225Z,5.18
2023-03-04T22:58:57.884Z,5.15
2023-03-04T23:01:25.063Z,5.12
2023-03-04T23:03:52.380Z,5.12
2023-03-04T23:06:21.599Z,5.12
2023-03-04T23:08:50.538Z,5.12
2023-03-04T23:11:26.622Z,5.11
2023-03-04T23:13:54.933Z,5.11
2023-03-04T23:16:23.363Z,5.11
2023-03-04T23:18:51.062Z,5.10
2023-03-04T23:21:21.466Z,5.09
2023-03-04T23:23:48.617Z,5.06
2023-03-04T23:26:21.805Z,5.08
2023-03-04T23:28:49.667Z,5.07
2023-03-04T23:31:16.956Z,5.07
2023-03-04T23:33:45.450Z,5.04
2023-03-04T23:36:15.543Z,5.04
2023-03-04T23:38:48.170Z,5.01
2023-03-04T23:41:18.158Z,5.01
2023-03-04T23:43:46.047Z,4.99
2023-03-04T23:46:13.851Z,4.97
2023-03-04T23:49:40.332Z,4.99
2023-03-04T23:52:08.349Z,4.95
2023-03-04T23:54:35.724Z,4.96
2023-03-04T23:57:02.761Z,4.96
2023-03-04T23:59:30.018Z,4.97
